Terminal Aerodrome Forecast
Issued by NWS Newport/Morehead City, NC

Home | Current Version | Previous Version | Text Only | Print | Product List | Glossary Off
Versions: 1 2 3 4 5 6 7 8 9 10 11 12 13 14 15 16

000
FTUS42 KMHX 161923 AAA
TAFEWN
TAF AMD
KEWN 161923Z 1619/1718 35012KT P6SM VCSH OVC015
     FM162200 01010KT P6SM VCSH BKN030
     FM170200 01010KT P6SM SCT090
     FM170600 36012KT P6SM SKC=

USA.gov is the U.S. government's official web portal to all federal, state and local government web resources and services.